Time;durP1;ratioP1;P1;durP2;ratioP2;P2;SDS_P1;SDS_P2;PMS_P1;PMS_P2;Temp;Humidity;BMP_temperature;BMP_pressure;BME280_temperature;BME280_humidity;BME280_pressure;Samples;Min_cycle;Max_cycle;Signal;HPM_P1;HPM_P2
2023/04/18 00:00:35;;;;;;;;;;;;;;;9.99;92.46;94620.88;5016132;28;1054;-56
2023/04/18 00:03:01;;;;;;;;;;;;;;;9.81;92.47;94617.56;5016263;28;967;-56
2023/04/18 00:05:28;;;;;;;;;;;;;;;9.62;93.63;94616.09;5016206;28;963;-56
2023/04/18 00:07:54;;;;;;;;;;;;;;;9.67;94.08;94613.75;5015997;28;1112;-56
2023/04/18 00:10:20;;;;;;;;;;;;;;;9.74;93.99;94620.09;5015567;28;1638;-56
2023/04/18 00:12:46;;;;;;;;;;;;;;;9.67;93.46;94619.94;4996491;28;971;-56
2023/04/18 00:15:12;;;;;;;;;;;;;;;9.61;93.70;94617.13;4996228;28;1054;-56
2023/04/18 00:17:38;;;;;;;;;;;;;;;9.66;93.10;94612.94;4996233;28;1070;-56
2023/04/18 00:20:11;;;;;;;;;;;;;;;9.69;93.39;94622.44;4996205;28;1910;-56
2023/04/18 00:22:41;;;;;;;;;;;;;;;9.60;93.11;94618.97;4996182;28;1071;-56
2023/04/18 00:25:08;;;;;;;;;;;;;;;9.58;93.34;94626.31;4996374;28;998;-56
2023/04/18 00:27:35;;;;;;;;;;;;;;;9.57;93.15;94622.78;4996287;28;1260;-56
2023/04/18 00:30:01;;;;;;;;;;;;;;;9.62;93.52;94621.44;4996359;28;1041;-56
2023/04/18 00:32:27;;;;;;;;;;;;;;;9.65;93.12;94631.78;4996177;28;1038;-56
2023/04/18 00:34:53;;;;;;;;;;;;;;;9.67;93.68;94624.44;4995969;28;1049;-56
2023/04/18 00:37:19;;;;;;;;;;;;;;;9.72;93.55;94622.09;4995788;28;1059;-56
2023/04/18 00:39:45;;;;;;;;;;;;;;;9.74;93.15;94620.94;4996021;28;1911;-56
2023/04/18 00:42:11;;;;;;;;;;;;;;;9.57;92.23;94619.28;4995941;28;979;-56
2023/04/18 00:44:37;;;;;;;;;;;;;;;9.33;92.96;94622.78;4995972;28;1050;-56
2023/04/18 00:47:03;;;;;;;;;;;;;;;9.19;93.81;94626.94;4978409;28;1067;-56
2023/04/18 00:49:29;;;;;;;;;;;;;;;9.24;94.10;94621.09;4995495;28;1035;-56
2023/04/18 00:51:55;;;;;;;;;;;;;;;9.42;93.43;94623.63;4995680;28;1046;-56
2023/04/18 00:54:22;;;;;;;;;;;;;;;9.52;93.38;94619.78;4995759;28;1039;-56
2023/04/18 00:56:49;;;;;;;;;;;;;;;9.54;93.03;94615.13;4995520;28;1160;-56
2023/04/18 00:59:15;;;;;;;;;;;;;;;9.29;92.08;94611.59;4995379;28;1989;-56
2023/04/18 01:01:42;;;;;;;;;;;;;;;9.06;93.09;94622.09;4995720;28;987;-56
2023/04/18 01:04:08;;;;;;;;;;;;;;;8.89;94.33;94620.41;4995504;28;1003;-56
2023/04/18 01:06:35;;;;;;;;;;;;;;;8.97;94.24;94609.75;4995188;28;1045;-56
2023/04/18 01:09:02;;;;;;;;;;;;;;;9.07;93.11;94613.09;4995518;28;963;-56
2023/04/18 01:11:28;;;;;;;;;;;;;;;9.08;93.09;94611.25;4987292;28;1586;-56
2023/04/18 01:13:58;;;;;;;;;;;;;;;9.10;92.58;94615.44;4997571;28;1046;-56
2023/04/18 01:16:25;;;;;;;;;;;;;;;9.12;91.71;94610.75;5014739;28;1081;-56
2023/04/18 01:18:52;;;;;;;;;;;;;;;9.06;92.01;94610.59;5014647;28;1910;-56
2023/04/18 01:21:19;;;;;;;;;;;;;;;8.98;92.04;94601.59;5014804;28;1218;-56
2023/04/18 01:23:46;;;;;;;;;;;;;;;8.82;90.70;94593.59;5014626;28;2010;-56
2023/04/18 01:26:12;;;;;;;;;;;;;;;8.53;91.30;94596.66;5014493;28;1124;-56
2023/04/18 01:28:38;;;;;;;;;;;;;;;8.29;91.66;94595.56;5014849;28;1037;-56
2023/04/18 01:31:04;;;;;;;;;;;;;;;8.06;92.69;94599.78;5014639;28;1062;-55
2023/04/18 01:33:30;;;;;;;;;;;;;;;8.02;93.12;94607.25;5014375;28;1153;-56
2023/04/18 01:35:56;;;;;;;;;;;;;;;8.20;92.74;94601.84;5014567;28;1238;-56
2023/04/18 01:38:22;;;;;;;;;;;;;;;8.26;91.51;94611.84;5014494;28;1987;-56
2023/04/18 01:40:48;;;;;;;;;;;;;;;8.33;91.46;94604.06;5014514;28;1058;-56
2023/04/18 01:43:14;;;;;;;;;;;;;;;8.34;91.34;94611.06;5014269;28;1001;-55
2023/04/18 01:45:40;;;;;;;;;;;;;;;8.32;91.59;94605.88;5014367;28;990;-56
2023/04/18 01:48:06;;;;;;;;;;;;;;;8.29;91.03;94600.03;5014242;28;1016;-56
2023/04/18 01:50:32;;;;;;;;;;;;;;;8.12;90.40;94599.97;5014002;28;1053;-56
2023/04/18 01:52:58;;;;;;;;;;;;;;;8.13;90.66;94598.97;5014394;28;956;-56
2023/04/18 01:55:24;;;;;;;;;;;;;;;8.19;90.26;94598.34;5014128;28;971;-56
2023/04/18 01:57:50;;;;;;;;;;;;;;;8.12;89.08;94593.81;5014022;28;1214;-56
2023/04/18 02:00:16;;;;;;;;;;;;;;;7.74;89.65;94598.59;5014197;28;1906;-56
2023/04/18 02:02:42;;;;;;;;;;;;;;;7.45;91.53;94602.41;5013937;28;970;-56
2023/04/18 02:05:08;;;;;;;;;;;;;;;7.53;91.80;94601.63;5013797;28;1057;-56
2023/04/18 02:07:34;;;;;;;;;;;;;;;7.67;91.16;94602.91;5014025;28;970;-56
2023/04/18 02:10:01;;;;;;;;;;;;;;;7.46;90.68;94612.06;4996460;28;1759;-57
2023/04/18 02:12:27;;;;;;;;;;;;;;;7.27;92.11;94612.25;4995527;28;1564;-56
2023/04/18 02:14:53;;;;;;;;;;;;;;;7.22;93.20;94610.03;4994112;28;1117;-56
2023/04/18 02:17:20;;;;;;;;;;;;;;;7.31;94.22;94610.97;4993988;28;986;-56
2023/04/18 02:19:46;;;;;;;;;;;;;;;7.56;92.92;94610.13;4993900;28;1907;-56
2023/04/18 02:22:12;;;;;;;;;;;;;;;7.77;92.10;94608.94;4994188;28;939;-56
2023/04/18 02:24:38;;;;;;;;;;;;;;;7.61;90.31;94613.16;4994243;28;1019;-56
2023/04/18 02:27:04;;;;;;;;;;;;;;;7.35;91.27;94613.13;4993991;28;1074;-56
2023/04/18 02:29:30;;;;;;;;;;;;;;;7.26;92.27;94615.88;4976758;28;1078;-56
2023/04/18 02:31:57;;;;;;;;;;;;;;;7.45;92.10;94615.69;4993979;28;990;-56
2023/04/18 02:34:23;;;;;;;;;;;;;;;7.66;91.68;94615.34;4993707;28;943;-56
2023/04/18 02:36:49;;;;;;;;;;;;;;;7.81;91.66;94624.41;4993964;28;1108;-56
2023/04/18 02:39:15;;;;;;;;;;;;;;;7.82;90.64;94614.63;4993648;28;1914;-56
2023/04/18 02:41:41;;;;;;;;;;;;;;;7.46;90.87;94619.22;4993942;28;1037;-56
2023/04/18 02:44:07;;;;;;;;;;;;;;;7.19;92.07;94613.84;4993874;28;1065;-56
2023/04/18 02:46:33;;;;;;;;;;;;;;;7.26;93.13;94615.88;4993711;28;1018;-56
2023/04/18 02:48:59;;;;;;;;;;;;;;;7.43;92.37;94610.53;4993474;28;1054;-56
2023/04/18 02:51:25;;;;;;;;;;;;;;;7.51;91.88;94611.59;4993505;28;936;-56
2023/04/18 02:53:53;;;;;;;;;;;;;;;7.57;91.35;94617.13;4993842;28;978;-56
2023/04/18 02:56:20;;;;;;;;;;;;;;;7.68;90.33;94620.50;4993551;28;1043;-55
2023/04/18 02:58:47;;;;;;;;;;;;;;;7.70;90.58;94608.75;4993549;28;1906;-55
2023/04/18 03:01:14;;;;;;;;;;;;;;;7.67;89.14;94616.19;4993597;28;1029;-55
2023/04/18 03:03:40;;;;;;;;;;;;;;;7.49;88.30;94619.72;4993734;28;971;-55
2023/04/18 03:06:06;;;;;;;;;;;;;;;7.17;88.56;94618.50;4993588;28;1022;-55
2023/04/18 03:08:32;;;;;;;;;;;;;;;7.02;90.39;94628.81;4993654;28;970;-55
2023/04/18 03:10:58;;;;;;;;;;;;;;;7.19;91.13;94620.97;4998842;28;1521;-55
2023/04/18 03:13:24;;;;;;;;;;;;;;;7.39;91.12;94632.28;5013021;28;1109;-55
2023/04/18 03:15:50;;;;;;;;;;;;;;;7.41;89.91;94627.66;5013190;28;963;-55
2023/04/18 03:18:16;;;;;;;;;;;;;;;7.16;89.21;94634.59;5013133;28;1985;-54
2023/04/18 03:20:42;;;;;;;;;;;;;;;6.95;90.61;94632.25;5013361;28;1062;-55
2023/04/18 03:23:08;;;;;;;;;;;;;;;7.08;91.15;94632.69;5032850;28;1061;-53
2023/04/18 03:25:34;;;;;;;;;;;;;;;7.21;91.14;94632.31;5036826;28;1021;-53
2023/04/18 03:28:00;;;;;;;;;;;;;;;7.34;91.38;94634.56;5036528;28;1113;-54
2023/04/18 03:30:26;;;;;;;;;;;;;;;7.54;91.42;94636.06;5036531;28;943;-55
2023/04/18 03:32:52;;;;;;;;;;;;;;;7.79;91.72;94629.06;5036399;28;1020;-54
2023/04/18 03:35:18;;;;;;;;;;;;;;;7.55;89.26;94645.72;5036364;28;1074;-54
2023/04/18 03:37:44;;;;;;;;;;;;;;;7.27;90.88;94638.84;5036538;28;967;-54
2023/04/18 03:40:10;;;;;;;;;;;;;;;7.38;91.84;94635.91;5036163;28;2016;-54
2023/04/18 03:42:36;;;;;;;;;;;;;;;7.57;92.10;94629.56;5036372;28;966;-54
2023/04/18 03:45:02;;;;;;;;;;;;;;;7.74;92.92;94638.50;5036286;28;1062;-54
2023/04/18 03:47:29;;;;;;;;;;;;;;;7.99;93.01;94635.03;5036057;28;1052;-54
2023/04/18 03:49:55;;;;;;;;;;;;;;;8.13;92.29;94638.09;5036114;28;1046;-54
2023/04/18 03:52:21;;;;;;;;;;;;;;;8.14;89.38;94637.09;5036203;28;1068;-54
2023/04/18 03:54:47;;;;;;;;;;;;;;;7.87;88.68;94640.75;5036399;28;966;-54
2023/04/18 03:57:13;;;;;;;;;;;;;;;7.54;90.56;94638.72;5036231;28;1053;-54
2023/04/18 03:59:40;;;;;;;;;;;;;;;7.41;92.15;94643.59;5035835;28;1914;-54
2023/04/18 04:02:05;;;;;;;;;;;;;;;7.31;93.12;94650.84;5035861;28;1196;-54
2023/04/18 04:04:31;;;;;;;;;;;;;;;7.48;93.71;94652.66;5035940;28;990;-54
2023/04/18 04:06:58;;;;;;;;;;;;;;;7.76;93.71;94657.84;5018236;28;1042;-54
2023/04/18 04:09:24;;;;;;;;;;;;;;;7.96;93.32;94659.28;5035671;28;1140;-53
2023/04/18 04:11:50;;;;;;;;;;;;;;;8.14;92.80;94650.41;5022949;28;1590;-54
2023/04/18 04:14:16;;;;;;;;;;;;;;;8.14;92.66;94659.25;5015801;28;1102;-55
2023/04/18 04:16:42;;;;;;;;;;;;;;;8.12;91.91;94665.69;5015859;28;1082;-54
2023/04/18 04:19:08;;;;;;;;;;;;;;;8.00;92.02;94668.63;5016021;28;1997;-54
2023/04/18 04:21:34;;;;;;;;;;;;;;;8.00;92.46;94671.28;5015645;28;1058;-54
2023/04/18 04:24:00;;;;;;;;;;;;;;;8.11;92.49;94669.38;5015916;28;975;-54
2023/04/18 04:26:26;;;;;;;;;;;;;;;8.29;92.81;94664.81;5015753;28;1278;-54
2023/04/18 04:28:52;;;;;;;;;;;;;;;8.53;92.41;94666.75;5016012;28;1033;-54
2023/04/18 04:31:20;;;;;;;;;;;;;;;8.58;92.99;94675.13;5015478;28;1046;-54
2023/04/18 04:33:46;;;;;;;;;;;;;;;8.56;93.55;94673.63;5015173;28;1053;-54
2023/04/18 04:36:17;;;;;;;;;;;;;;;8.55;93.85;94678.09;5015668;28;966;-54
2023/04/18 04:38:43;;;;;;;;;;;;;;;8.59;94.16;94679.47;5015653;28;1980;-54
2023/04/18 04:41:10;;;;;;;;;;;;;;;8.77;94.32;94682.00;5015325;28;1058;-54
2023/04/18 04:43:36;;;;;;;;;;;;;;;8.96;94.06;94674.75;5015217;28;1106;-54
2023/04/18 04:46:03;;;;;;;;;;;;;;;9.13;93.44;94675.63;5015169;28;1524;-54
2023/04/18 04:48:29;;;;;;;;;;;;;;;9.08;93.50;94678.75;5015410;28;994;-54
2023/04/18 04:50:58;;;;;;;;;;;;;;;9.09;94.48;94674.28;5015461;28;1002;-55
2023/04/18 04:53:25;;;;;;;;;;;;;;;9.23;93.83;94678.97;5015219;28;978;-54
2023/04/18 04:55:51;;;;;;;;;;;;;;;9.34;93.51;94675.16;5015138;28;1006;-54
2023/04/18 04:58:17;;;;;;;;;;;;;;;9.40;93.18;94684.31;5015222;28;1966;-55
2023/04/18 05:00:43;;;;;;;;;;;;;;;9.52;92.31;94678.50;5015023;28;1117;-54
2023/04/18 05:03:10;;;;;;;;;;;;;;;9.58;92.58;94677.84;5015192;28;1115;-54
2023/04/18 05:05:36;;;;;;;;;;;;;;;9.72;92.08;94668.31;5015120;28;1069;-54
2023/04/18 05:08:02;;;;;;;;;;;;;;;9.82;91.58;94672.66;5014997;28;1061;-56
2023/04/18 05:10:28;;;;;;;;;;;;;;;9.83;92.10;94669.00;5014776;28;1642;-55
2023/04/18 05:12:54;;;;;;;;;;;;;;;9.95;91.64;94671.13;4997708;28;1053;-55
2023/04/18 05:15:20;;;;;;;;;;;;;;;10.15;90.89;94670.78;5014608;28;2010;-55
2023/04/18 05:17:46;;;;;;;;;;;;;;;10.18;90.91;94678.44;5014596;28;809;-56
2023/04/18 05:20:12;;;;;;;;;;;;;;;10.21;91.06;94678.09;5014804;28;1993;-56
2023/04/18 05:22:38;;;;;;;;;;;;;;;10.21;91.17;94685.31;5014662;28;2028;-57
2023/04/18 05:25:04;;;;;;;;;;;;;;;10.13;92.52;94678.09;5014912;28;979;-56
2023/04/18 05:27:30;;;;;;;;;;;;;;;10.14;92.84;94682.47;5014639;28;994;-56
2023/04/18 05:29:56;;;;;;;;;;;;;;;10.22;92.28;94676.25;4997080;28;1050;-56
2023/04/18 05:32:22;;;;;;;;;;;;;;;10.25;92.41;94676.75;5014665;28;1056;-56
2023/04/18 05:34:48;;;;;;;;;;;;;;;10.35;92.38;94681.94;5014597;28;1058;-57
2023/04/18 05:37:14;;;;;;;;;;;;;;;10.29;92.32;94686.09;5014463;28;1049;-56
2023/04/18 05:39:41;;;;;;;;;;;;;;;10.40;91.93;94692.13;4997195;28;1987;-56
2023/04/18 05:42:07;;;;;;;;;;;;;;;10.32;92.26;94688.47;5014461;28;1006;-56
2023/04/18 05:44:33;;;;;;;;;;;;;;;10.25;92.43;94690.13;5014085;28;1039;-56
2023/04/18 05:46:59;;;;;;;;;;;;;;;10.28;92.79;94694.28;5012206;28;1093;-56
2023/04/18 05:49:25;;;;;;;;;;;;;;;10.54;91.63;94694.06;5013507;28;1106;-55
2023/04/18 05:51:51;;;;;;;;;;;;;;;10.66;90.77;94703.41;4996929;28;978;-55
2023/04/18 05:54:20;;;;;;;;;;;;;;;10.77;91.83;94702.19;5014000;28;1209;-55
2023/04/18 05:56:47;;;;;;;;;;;;;;;10.73;91.24;94704.38;5014043;28;1161;-54
2023/04/18 05:59:13;;;;;;;;;;;;;;;10.78;91.34;94701.19;5014327;28;1907;-55
2023/04/18 06:01:39;;;;;;;;;;;;;;;10.93;91.33;94698.63;4996360;28;962;-54
2023/04/18 06:04:07;;;;;;;;;;;;;;;11.07;90.72;94703.22;5013878;28;1030;-55
2023/04/18 06:06:33;;;;;;;;;;;;;;;11.25;90.42;94692.25;5013886;28;1037;-55
2023/04/18 06:08:59;;;;;;;;;;;;;;;11.23;87.14;94696.09;5014114;28;1057;-57
2023/04/18 06:11:25;;;;;;;;;;;;;;;11.68;87.11;94695.28;5004226;28;1235;-56
2023/04/18 06:13:54;;;;;;;;;;;;;;;11.79;86.30;94693.22;4994289;28;1031;-56
2023/04/18 06:16:20;;;;;;;;;;;;;;;11.78;85.74;94700.44;4993863;28;1161;-56
2023/04/18 06:18:46;;;;;;;;;;;;;;;12.02;86.08;94695.91;4994153;28;1918;-56
2023/04/18 06:21:13;;;;;;;;;;;;;;;12.24;84.88;94697.72;4994081;28;990;-56
2023/04/18 06:23:39;;;;;;;;;;;;;;;12.38;85.36;94688.00;4976994;28;1600;-56
2023/04/18 06:26:06;;;;;;;;;;;;;;;12.29;83.84;94692.66;4994291;28;959;-55
2023/04/18 06:28:32;;;;;;;;;;;;;;;12.40;85.71;94698.56;4993881;28;1051;-55
2023/04/18 06:30:58;;;;;;;;;;;;;;;12.50;84.94;94693.75;4976561;28;1055;-56
2023/04/18 06:33:24;;;;;;;;;;;;;;;12.62;84.77;94692.28;4976604;28;1071;-56
2023/04/18 06:35:50;;;;;;;;;;;;;;;13.02;83.37;94689.31;4994027;28;1030;-56
2023/04/18 06:38:16;;;;;;;;;;;;;;;13.12;81.86;94691.69;4994073;28;1050;-56
2023/04/18 06:40:42;;;;;;;;;;;;;;;12.87;81.63;94692.00;4993808;28;1968;-56
2023/04/18 06:43:08;;;;;;;;;;;;;;;12.61;82.98;94689.78;4993990;28;987;-56
2023/04/18 06:45:34;;;;;;;;;;;;;;;12.68;85.18;94688.03;4993608;28;1046;-56
2023/04/18 06:48:04;;;;;;;;;;;;;;;12.46;83.83;94682.59;4993722;28;1181;-56
2023/04/18 06:50:30;;;;;;;;;;;;;;;12.56;84.84;94690.34;4993881;28;955;-55
2023/04/18 06:52:56;;;;;;;;;;;;;;;12.60;85.51;94686.28;4993634;28;1053;-55
2023/04/18 06:55:22;;;;;;;;;;;;;;;12.39;87.30;94688.88;4976690;28;960;-55
2023/04/18 06:57:48;;;;;;;;;;;;;;;12.22;87.39;94689.03;4995433;28;1050;-55
2023/04/18 07:00:14;;;;;;;;;;;;;;;12.28;88.85;94687.47;4980231;28;1973;-55
2023/04/18 07:02:40;;;;;;;;;;;;;;;12.37;87.28;94683.69;4997642;28;1042;-56
2023/04/18 07:05:06;;;;;;;;;;;;;;;12.50;85.39;94686.56;4997881;28;1073;-56
2023/04/18 07:07:33;;;;;;;;;;;;;;;12.46;87.08;94687.09;4997793;28;955;-56
2023/04/18 07:09:59;;;;;;;;;;;;;;;12.68;85.46;94688.84;4997621;28;1246;-58
2023/04/18 07:12:26;;;;;;;;;;;;;;;12.70;85.49;94686.00;5014655;28;1545;-56
2023/04/18 07:14:52;;;;;;;;;;;;;;;12.64;87.47;94679.53;5017411;28;1013;-56
2023/04/18 07:17:18;;;;;;;;;;;;;;;12.69;85.26;94685.19;5016929;28;1053;-56
2023/04/18 07:19:44;;;;;;;;;;;;;;;13.09;85.17;94684.84;5017141;28;1918;-56
2023/04/18 07:22:10;;;;;;;;;;;;;;;13.52;83.22;94695.69;5016880;28;1050;-56
2023/04/18 07:24:38;;;;;;;;;;;;;;;13.44;84.01;94695.81;5016863;28;1062;-56
2023/04/18 07:27:08;;;;;;;;;;;;;;;13.65;82.76;94693.13;5016886;28;1670;-55
2023/04/18 07:29:34;;;;;;;;;;;;;;;13.81;81.97;94685.84;5016689;28;1110;-55
2023/04/18 07:32:01;;;;;;;;;;;;;;;14.14;80.77;94688.84;5017006;28;990;-55
2023/04/18 07:34:28;;;;;;;;;;;;;;;14.25;78.63;94693.69;5017011;28;966;-55
2023/04/18 07:36:55;;;;;;;;;;;;;;;14.26;76.53;94689.13;5016838;28;1022;-55
2023/04/18 07:39:21;;;;;;;;;;;;;;;14.11;79.74;94693.75;5016824;28;1930;-55
2023/04/18 07:41:47;;;;;;;;;;;;;;;14.02;78.34;94698.47;5016941;28;1125;-55
2023/04/18 07:44:13;;;;;;;;;;;;;;;14.03;80.34;94689.34;5016696;28;1062;-58
2023/04/18 07:46:39;;;;;;;;;;;;;;;14.15;79.98;94693.19;4999290;28;1045;-56
2023/04/18 07:49:05;;;;;;;;;;;;;;;14.51;78.91;94702.97;4999345;28;1329;-56
2023/04/18 07:51:31;;;;;;;;;;;;;;;14.87;76.31;94691.22;5016601;28;1070;-56
2023/04/18 07:53:58;;;;;;;;;;;;;;;15.02;74.26;94691.94;5016616;28;968;-56
2023/04/18 07:56:24;;;;;;;;;;;;;;;15.07;74.69;94696.72;5016281;28;982;-56
2023/04/18 07:58:51;;;;;;;;;;;;;;;14.86;72.79;94699.50;5016163;28;1991;-56
2023/04/18 08:01:19;;;;;;;;;;;;;;;14.80;75.71;94695.75;5016033;28;1049;-56
2023/04/18 08:03:47;;;;;;;;;;;;;;;15.11;71.71;94697.13;5016218;28;1098;-56
2023/04/18 08:06:13;;;;;;;;;;;;;;;15.18;70.24;94692.63;5016310;28;1065;-56
2023/04/18 08:08:39;;;;;;;;;;;;;;;15.24;70.77;94697.19;5015069;28;1025;-56
2023/04/18 08:11:05;;;;;;;;;;;;;;;15.20;70.53;94696.75;5009331;28;1587;-55
2023/04/18 08:13:31;;;;;;;;;;;;;;;15.23;69.91;94695.53;4996235;28;1073;-55
2023/04/18 08:15:58;;;;;;;;;;;;;;;15.21;69.71;94690.34;4996356;28;986;-53
2023/04/18 08:18:24;;;;;;;;;;;;;;;15.01;67.19;94695.63;4996188;28;1906;-56
2023/04/18 08:20:51;;;;;;;;;;;;;;;15.02;68.54;94694.63;4996296;28;1046;-54
2023/04/18 08:23:17;;;;;;;;;;;;;;;15.16;69.58;94700.06;4996173;28;1070;-54
2023/04/18 08:25:43;;;;;;;;;;;;;;;15.34;66.07;94699.50;4996480;28;1046;-54
2023/04/18 08:28:09;;;;;;;;;;;;;;;15.26;67.06;94705.91;4996069;28;1043;-55
2023/04/18 08:30:35;;;;;;;;;;;;;;;15.20;65.94;94704.03;4995872;28;1145;-56
2023/04/18 08:33:01;;;;;;;;;;;;;;;15.18;65.63;94700.69;4996141;28;1057;-56
2023/04/18 08:35:27;;;;;;;;;;;;;;;14.99;66.75;94699.56;4978727;28;1118;-56
2023/04/18 08:37:53;;;;;;;;;;;;;;;14.90;65.27;94698.91;4996166;28;1025;-55
2023/04/18 08:40:19;;;;;;;;;;;;;;;14.83;66.18;94701.56;4995626;28;1993;-56
2023/04/18 08:42:45;;;;;;;;;;;;;;;14.74;65.85;94691.13;4995607;28;1002;-56
2023/04/18 08:45:13;;;;;;;;;;;;;;;14.99;66.50;94699.56;4995847;28;1141;-55
2023/04/18 08:47:39;;;;;;;;;;;;;;;15.38;65.69;94688.13;4995755;28;1005;-56
2023/04/18 08:50:06;;;;;;;;;;;;;;;15.52;63.90;94693.56;4995658;28;1105;-56
2023/04/18 08:52:34;;;;;;;;;;;;;;;15.67;64.26;94699.63;4995442;28;1156;-56
2023/04/18 08:55:04;;;;;;;;;;;;;;;16.07;62.84;94691.63;4995761;28;1062;-55
2023/04/18 08:57:30;;;;;;;;;;;;;;;16.29;61.56;94694.94;4995485;28;1042;-55
2023/04/18 08:59:59;;;;;;;;;;;;;;;16.82;59.98;94699.50;4995386;28;1911;-55
2023/04/18 09:02:37;;;;;;;;;;;;;;;17.27;55.87;94696.88;4995634;28;1034;-54
2023/04/18 09:05:18;;;;;;;;;;;;;;;18.24;57.04;94685.94;4995429;28;1066;-55
2023/04/18 09:07:45;;;;;;;;;;;;;;;19.02;55.63;94686.53;4995346;28;1058;-55
2023/04/18 09:10:11;;;;;;;;;;;;;;;19.51;56.60;94690.94;4995320;28;1087;-57
2023/04/18 09:12:41;;;;;;;;;;;;;;;19.79;53.28;94686.03;5014316;28;1541;-57
2023/04/18 09:15:19;;;;;;;;;;;;;;;20.08;55.22;94684.38;5014647;28;1112;-56
2023/04/18 09:17:49;;;;;;;;;;;;;;;20.39;51.20;94696.00;5014787;28;990;-57
2023/04/18 09:20:24;;;;;;;;;;;;;;;20.56;49.78;94690.72;5014843;28;1975;-57
2023/04/18 09:22:52;;;;;;;;;;;;;;;19.88;51.44;94681.94;5014671;28;1058;-57
2023/04/18 09:25:28;;;;;;;;;;;;;;;19.73;49.48;94673.38;4996988;28;1062;-56
2023/04/18 09:27:59;;;;;;;;;;;;;;;19.41;51.20;94673.56;5014513;28;986;-56
2023/04/18 09:30:29;;;;;;;;;;;;;;;19.07;52.44;94667.72;5014596;28;962;-56
2023/04/18 09:32:57;;;;;;;;;;;;;;;19.45;55.56;94663.94;5014755;28;967;-56
2023/04/18 09:35:24;;;;;;;;;;;;;;;18.69;53.82;94661.41;5014560;28;990;-56
2023/04/18 09:37:50;;;;;;;;;;;;;;;18.69;54.42;94658.69;5014422;28;1017;-56
2023/04/18 09:40:17;;;;;;;;;;;;;;;18.97;54.38;94670.97;5014117;28;1910;-56
2023/04/18 09:42:44;;;;;;;;;;;;;;;19.35;53.79;94659.06;5014238;28;1006;-56
2023/04/18 09:45:11;;;;;;;;;;;;;;;18.97;55.87;94665.53;5014334;28;975;-56
2023/04/18 09:47:38;;;;;;;;;;;;;;;19.04;53.09;94660.84;5014438;28;1042;-56
2023/04/18 09:50:05;;;;;;;;;;;;;;;19.19;51.81;94657.75;5014170;28;1146;-56
2023/04/18 09:52:34;;;;;;;;;;;;;;;19.65;51.66;94659.06;5014001;28;1105;-56
2023/04/18 09:55:01;;;;;;;;;;;;;;;19.85;51.75;94652.56;5014185;28;1070;-57
2023/04/18 09:57:27;;;;;;;;;;;;;;;19.81;51.31;94656.81;5014009;28;1046;-56
2023/04/18 09:59:56;;;;;;;;;;;;;;;19.55;49.52;94647.94;5013796;28;1910;-57
2023/04/18 10:02:23;;;;;;;;;;;;;;;18.94;52.30;94648.91;5013836;28;1042;-57
2023/04/18 10:04:51;;;;;;;;;;;;;;;18.65;53.50;94654.78;5014136;28;1033;-56
2023/04/18 10:07:17;;;;;;;;;;;;;;;18.39;51.86;94641.50;5013921;28;1013;-56
2023/04/18 10:09:46;;;;;;;;;;;;;;;18.15;51.92;94635.84;5014105;28;1084;-56
2023/04/18 10:15:43;;;;;;;;;;;;;;;17.93;53.24;94640.84;4974778;28;1050;-56
2023/04/18 10:18:10;;;;;;;;;;;;;;;17.90;54.76;94627.75;4974664;28;959;-57
2023/04/18 10:20:36;;;;;;;;;;;;;;;18.06;51.75;94624.50;4974605;28;1980;-57
2023/04/18 10:23:20;;;;;;;;;;;;;;;18.32;53.41;94617.19;4974665;28;1050;-57
2023/04/18 10:25:47;;;;;;;;;;;;;;;18.63;51.75;94620.84;4974913;28;1069;-56
2023/04/18 10:28:13;;;;;;;;;;;;;;;19.56;53.15;94610.78;4974444;28;1145;-56
2023/04/18 10:30:39;;;;;;;;;;;;;;;19.47;50.42;94610.31;4974710;28;1054;-56
2023/04/18 10:33:21;;;;;;;;;;;;;;;19.68;50.50;94604.34;4974382;28;963;-55
2023/04/18 10:35:56;;;;;;;;;;;;;;;19.77;50.06;94609.47;4974657;28;1057;-55
2023/04/18 10:38:22;;;;;;;;;;;;;;;19.67;50.77;94610.00;4974706;28;963;-56
2023/04/18 10:40:48;;;;;;;;;;;;;;;19.13;48.91;94612.63;4974496;28;1926;-55
2023/04/18 10:43:14;;;;;;;;;;;;;;;19.78;48.42;94611.16;4974268;28;995;-56
2023/04/18 10:45:40;;;;;;;;;;;;;;;20.18;50.51;94605.09;4974319;28;1063;-56
2023/04/18 10:48:28;;;;;;;;;;;;;;;19.36;49.98;94600.25;4974686;28;1045;-57
2023/04/18 10:51:13;;;;;;;;;;;;;;;18.80;51.74;94597.59;4974582;28;978;-56
2023/04/18 10:53:45;;;;;;;;;;;;;;;18.65;50.30;94599.81;4974344;28;946;-57
2023/04/18 10:56:11;;;;;;;;;;;;;;;18.53;49.80;94602.41;4974216;28;1082;-56
2023/04/18 10:58:40;;;;;;;;;;;;;;;18.59;50.69;94597.97;4974420;28;1914;-57
2023/04/18 11:01:07;;;;;;;;;;;;;;;18.58;50.71;94593.63;4974267;28;1058;-56
2023/04/18 11:03:33;;;;;;;;;;;;;;;18.75;48.38;94597.41;4999227;28;2845;-57
2023/04/18 11:06:02;;;;;;;;;;;;;;;18.60;51.88;94580.69;5013364;28;994;-56
2023/04/18 11:08:29;;;;;;;;;;;;;;;18.43;50.40;94591.28;5013214;28;1055;-57
2023/04/18 11:10:58;;;;;;;;;;;;;;;18.57;52.42;94581.97;5008394;28;1554;-56
2023/04/18 11:13:24;;;;;;;;;;;;;;;18.81;51.29;94580.28;4996926;28;1260;-56
2023/04/18 11:15:50;;;;;;;;;;;;;;;18.85;47.32;94584.19;5013367;28;1046;-55
2023/04/18 11:18:16;;;;;;;;;;;;;;;18.83;50.99;94574.63;4995796;28;1053;-55
2023/04/18 11:20:47;;;;;;;;;;;;;;;18.59;49.40;94577.19;5013064;28;1902;-55
2023/04/18 11:23:15;;;;;;;;;;;;;;;18.58;51.36;94566.56;5013089;28;1041;-56
2023/04/18 11:25:43;;;;;;;;;;;;;;;18.95;49.60;94567.38;5013196;28;1076;-55
2023/04/18 11:28:12;;;;;;;;;;;;;;;18.48;49.09;94534.59;5012807;28;1106;-55
2023/04/18 11:30:39;;;;;;;;;;;;;;;18.47;51.30;94565.41;5013136;28;979;-56
2023/04/18 11:33:10;;;;;;;;;;;;;;;18.29;49.76;94556.25;5012885;28;1066;-55
2023/04/18 11:35:42;;;;;;;;;;;;;;;18.33;51.65;94552.03;5012986;28;1191;-56
2023/04/18 11:38:10;;;;;;;;;;;;;;;18.24;50.74;94557.97;5013354;28;1057;-55
2023/04/18 11:40:36;;;;;;;;;;;;;;;18.13;51.55;94559.50;5012945;28;2021;-55
2023/04/18 11:43:02;;;;;;;;;;;;;;;18.36;52.65;94549.91;5012430;28;1034;-56
2023/04/18 11:45:28;;;;;;;;;;;;;;;18.95;53.19;94551.13;5015345;28;1053;-55
2023/04/18 11:47:56;;;;;;;;;;;;;;;19.18;52.21;94549.59;5016627;28;1025;-55
2023/04/18 11:50:23;;;;;;;;;;;;;;;19.04;52.89;94544.34;5016665;28;1025;-55
2023/04/18 11:52:50;;;;;;;;;;;;;;;18.79;51.10;94557.16;5016581;28;1057;-55
2023/04/18 11:55:23;;;;;;;;;;;;;;;18.38;52.20;94545.13;5016546;28;1045;-55
2023/04/18 11:57:49;;;;;;;;;;;;;;;18.20;52.87;94554.03;5016290;28;1105;-55
2023/04/18 12:00:17;;;;;;;;;;;;;;;17.98;54.99;94551.72;5016329;28;1996;-55
2023/04/18 12:02:44;;;;;;;;;;;;;;;17.80;57.53;94546.25;5015999;28;1082;-55
2023/04/18 12:05:13;;;;;;;;;;;;;;;17.57;58.57;94542.28;5015839;28;1018;-55
2023/04/18 12:07:40;;;;;;;;;;;;;;;17.34;58.66;94546.38;4998813;28;1015;-55
2023/04/18 12:10:25;;;;;;;;;;;;;;;17.14;60.47;94542.97;5016278;28;971;-55
2023/04/18 12:12:53;;;;;;;;;;;;;;;17.00;60.47;94546.75;4996369;28;1026;-55
2023/04/18 12:15:20;;;;;;;;;;;;;;;16.80;61.34;94542.25;4978773;28;1154;-55
2023/04/18 12:17:53;;;;;;;;;;;;;;;16.52;63.14;94543.44;4996388;28;978;-55
2023/04/18 12:20:19;;;;;;;;;;;;;;;16.33;64.55;94539.75;4996282;28;1910;-55
2023/04/18 12:22:49;;;;;;;;;;;;;;;16.27;63.98;94527.09;4996310;28;987;-55
2023/04/18 12:25:24;;;;;;;;;;;;;;;16.10;63.73;94523.19;4996168;28;1002;-55
2023/04/18 12:27:50;;;;;;;;;;;;;;;16.00;64.28;94529.84;4996124;28;1054;-55
2023/04/18 12:30:20;;;;;;;;;;;;;;;15.93;64.22;94529.00;4996103;28;1018;-55
2023/04/18 12:32:53;;;;;;;;;;;;;;;15.84;65.60;94542.91;4995920;28;1974;-55
2023/04/18 12:35:20;;;;;;;;;;;;;;;15.61;65.20;94549.53;4995773;28;1117;-54
2023/04/18 12:37:47;;;;;;;;;;;;;;;15.54;66.31;94554.94;4995816;28;1055;-54
2023/04/18 12:40:13;;;;;;;;;;;;;;;15.76;65.83;94547.50;4995621;28;1923;-54
2023/04/18 12:42:40;;;;;;;;;;;;;;;15.88;66.47;94554.94;4995709;28;1101;-54
2023/04/18 12:45:10;;;;;;;;;;;;;;;16.04;65.40;94554.53;4996058;28;966;-55
2023/04/18 12:47:40;;;;;;;;;;;;;;;16.14;63.68;94556.78;4995905;28;1128;-54
2023/04/18 12:50:07;;;;;;;;;;;;;;;16.33;62.46;94563.16;4995857;28;1002;-54
2023/04/18 12:52:34;;;;;;;;;;;;;;;16.34;60.95;94545.97;4995507;28;1054;-54
2023/04/18 12:55:00;;;;;;;;;;;;;;;16.36;61.99;94547.41;4995141;28;1058;-54
2023/04/18 12:57:26;;;;;;;;;;;;;;;16.22;63.01;94545.78;4995432;28;1054;-54
2023/04/18 12:59:52;;;;;;;;;;;;;;;15.95;62.75;94547.69;4995703;28;1906;-54
2023/04/18 13:02:18;;;;;;;;;;;;;;;15.75;63.33;94543.13;4995388;28;960;-54
2023/04/18 13:04:44;;;;;;;;;;;;;;;15.68;63.65;94547.66;4995380;28;1137;-54